Terminal Aerodrome Forecast
Issued by NWS New Orleans/Baton Rouge, LA

Home | Current Version | Previous Version | Text Only | Print | Product List | Glossary On
Versions: 1 2 3 4 5 6 7 8 9 10 11 12 13 14 15 16 17 18 19 20
000
FTUS44 KLIX 191420 AAB
TAFBTR
TAF AMD
KBTR 191420Z 1914/2012 23009G17KT 3/4SM +TSRA BR BKN006 BKN010
      OVC020CB
     FM191600 19009KT 3SM -SHRA OVC035
      TEMPO 1916/1919 2SM +TSRA OVC020CB
     FM191900 19012KT P6SM -RA OVC015
     FM192200 20010KT 6SM BR OVC007=

USA.gov is the U.S. government's official web portal to all federal, state and local government web resources and services.